Time;durP1;ratioP1;P1;durP2;ratioP2;P2;SDS_P1;SDS_P2;PMS_P1;PMS_P2;Temp;Humidity;BMP_temperature;BMP_pressure;BME280_temperature;BME280_humidity;BME280_pressure;Samples;Min_cycle;Max_cycle;Signal;HPM_P1;HPM_P2
2023/04/08 00:00:57;;;;;;;4.40;3.00;;;;;;;;;;107839;279;44189;-30
2023/04/08 00:03:31;;;;;;;4.50;2.90;;;;;;;;;;107807;279;42645;-30
2023/04/08 00:06:08;;;;;;;4.40;2.80;;;;;;;;;;107791;279;44790;-30
2023/04/08 00:08:44;;;;;;;4.70;2.90;;;;;;;;;;107824;272;39782;-31
2023/04/08 00:11:21;;;;;;;4.80;3.00;;;;;;;;;;107851;279;43015;-31
2023/04/08 00:13:57;;;;;;;4.50;3.00;;;;;;;;;;107785;272;43587;-31
2023/04/08 00:16:35;;;;;;;4.40;3.20;;;;;;;;;;107831;279;46217;-31
2023/04/08 00:19:13;;;;;;;5.00;3.20;;;;;;;;;;107794;272;39617;-31
2023/04/08 00:21:51;;;;;;;5.00;3.20;;;;;;;;;;107823;279;43104;-31
2023/04/08 00:24:27;;;;;;;4.90;3.40;;;;;;;;;;107687;279;175787;-31
2023/04/08 00:27:03;;;;;;;4.60;3.10;;;;;;;;;;107812;279;38518;-31
2023/04/08 00:29:41;;;;;;;4.90;3.30;;;;;;;;;;107827;279;39701;-31
2023/04/08 00:32:15;;;;;;;5.10;3.50;;;;;;;;;;107803;279;42879;-31
2023/04/08 00:34:51;;;;;;;4.70;3.50;;;;;;;;;;107766;279;42447;-31
2023/04/08 00:37:26;;;;;;;4.70;3.60;;;;;;;;;;107791;272;38885;-31
2023/04/08 00:40:04;;;;;;;5.10;3.60;;;;;;;;;;107803;279;39759;-31
2023/04/08 00:42:40;;;;;;;6.50;3.80;;;;;;;;;;107819;279;44108;-31
2023/04/08 00:45:15;;;;;;;5.70;3.80;;;;;;;;;;107770;279;42190;-31
2023/04/08 00:47:53;;;;;;;5.00;3.90;;;;;;;;;;107789;272;39188;-31
2023/04/08 00:50:29;;;;;;;5.40;3.90;;;;;;;;;;107809;279;39680;-31
2023/04/08 00:53:05;;;;;;;5.00;3.50;;;;;;;;;;107828;272;42600;-31
2023/04/08 00:55:41;;;;;;;5.20;3.70;;;;;;;;;;107795;271;42171;-31
2023/04/08 00:58:16;;;;;;;5.30;3.80;;;;;;;;;;107808;271;38764;-31
2023/04/08 01:00:58;;;;;;;5.30;3.90;;;;;;;;;;107797;272;41088;-31
2023/04/08 01:03:38;;;;;;;;;;;;;;;;;;107804;272;43148;-31
2023/04/08 01:06:26;;;;;;;5.20;3.80;;;;;;;;;;107825;279;42873;-31
2023/04/08 01:09:02;;;;;;;5.60;3.90;;;;;;;;;;107834;279;39914;-31
2023/04/08 01:11:42;;;;;;;5.40;4.00;;;;;;;;;;107823;279;40873;-31
2023/04/08 01:14:23;;;;;;;5.10;3.90;;;;;;;;;;107840;279;44162;-31
2023/04/08 01:17:02;;;;;;;5.60;4.00;;;;;;;;;;107753;271;42188;-31
2023/04/08 01:19:40;;;;;;;6.20;4.30;;;;;;;;;;107828;279;39210;-31
2023/04/08 01:22:23;;;;;;;5.50;4.10;;;;;;;;;;107846;271;39478;-31
2023/04/08 01:25:04;;;;;;;5.30;4.00;;;;;;;;;;107804;272;42910;-31
2023/04/08 01:27:42;;;;;;;6.00;4.40;;;;;;;;;;107789;279;42254;-31
2023/04/08 01:30:19;;;;;;;5.20;4.00;;;;;;;;;;107803;279;38840;-31
2023/04/08 01:32:56;;;;;;;5.50;4.20;;;;;;;;;;107818;271;41097;-31
2023/04/08 01:35:33;;;;;;;5.30;4.00;;;;;;;;;;107767;279;42873;-31
2023/04/08 01:38:09;;;;;;;5.60;4.00;;;;;;;;;;107388;278;527718;-31
2023/04/08 01:40:45;;;;;;;5.80;4.40;;;;;;;;;;107861;272;38907;-31
2023/04/08 01:43:22;;;;;;;5.60;4.30;;;;;;;;;;107834;272;40226;-31
2023/04/08 01:45:57;;;;;;;5.90;4.30;;;;;;;;;;107830;272;43164;-31
2023/04/08 01:48:36;;;;;;;6.00;4.40;;;;;;;;;;107786;272;48245;-31
2023/04/08 01:51:14;;;;;;;5.70;4.40;;;;;;;;;;107804;279;38816;-31
2023/04/08 01:53:50;;;;;;;5.50;4.20;;;;;;;;;;107801;275;39717;-31
2023/04/08 01:56:29;;;;;;;5.20;4.10;;;;;;;;;;107772;279;42889;-31
2023/04/08 01:59:06;;;;;;;5.50;4.30;;;;;;;;;;107821;279;42185;-31
2023/04/08 02:01:41;;;;;;;5.70;4.30;;;;;;;;;;107803;279;39806;-31
2023/04/08 02:04:18;;;;;;;5.50;4.40;;;;;;;;;;107822;279;39687;-31
2023/04/08 02:06:55;;;;;;;5.00;4.10;;;;;;;;;;107785;272;42875;-31
2023/04/08 02:09:31;;;;;;;5.60;4.50;;;;;;;;;;107814;279;42102;-31
2023/04/08 02:12:06;;;;;;;5.20;4.10;;;;;;;;;;107855;279;38813;-31
2023/04/08 02:14:41;;;;;;;5.90;4.50;;;;;;;;;;107812;279;39712;-31
2023/04/08 02:17:21;;;;;;;5.50;4.40;;;;;;;;;;107796;279;43982;-31
2023/04/08 02:20:06;;;;;;;5.40;4.30;;;;;;;;;;107690;272;175724;-31
2023/04/08 02:22:49;;;;;;;7.50;4.50;;;;;;;;;;107824;279;38840;-31
2023/04/08 02:25:28;;;;;;;5.90;4.40;;;;;;;;;;107843;279;40995;-31
2023/04/08 02:28:04;;;;;;;5.50;4.30;;;;;;;;;;107816;279;42923;-31
2023/04/08 02:30:43;;;;;;;5.10;4.10;;;;;;;;;;107891;272;42282;-31
2023/04/08 02:33:20;;;;;;;5.70;4.50;;;;;;;;;;107824;279;38916;-31
2023/04/08 02:35:59;;;;;;;5.80;4.40;;;;;;;;;;107824;279;39864;-31
2023/04/08 02:38:37;;;;;;;5.90;4.50;;;;;;;;;;107836;279;42863;-31
2023/04/08 02:41:16;;;;;;;5.80;4.70;;;;;;;;;;107823;279;42269;-31
2023/04/08 02:43:54;;;;;;;5.60;4.50;;;;;;;;;;107851;280;38856;-31
2023/04/08 02:46:30;;;;;;;5.90;4.50;;;;;;;;;;107844;272;39681;-31
2023/04/08 02:49:08;;;;;;;5.90;4.60;;;;;;;;;;107795;279;43043;-31
2023/04/08 02:51:44;;;;;;;6.20;4.60;;;;;;;;;;107806;279;42220;-31
2023/04/08 02:54:21;;;;;;;5.90;4.70;;;;;;;;;;107808;279;38774;-31
2023/04/08 02:56:59;;;;;;;5.60;4.50;;;;;;;;;;107669;279;175214;-31
2023/04/08 02:59:36;;;;;;;5.90;4.50;;;;;;;;;;107738;278;43016;-31
2023/04/08 03:02:10;;;;;;;6.00;4.70;;;;;;;;;;107807;279;42301;-31
2023/04/08 03:04:45;;;;;;;6.30;4.50;;;;;;;;;;107826;279;39045;-31
2023/04/08 03:07:22;;;;;;;6.30;4.60;;;;;;;;;;107805;279;39868;-31
2023/04/08 03:09:59;;;;;;;5.70;4.30;;;;;;;;;;107777;272;48532;-31
2023/04/08 03:12:36;;;;;;;5.50;4.60;;;;;;;;;;107809;279;42269;-31
2023/04/08 03:15:13;;;;;;;5.30;4.30;;;;;;;;;;107810;279;38760;-31
2023/04/08 03:17:49;;;;;;;5.50;4.50;;;;;;;;;;107812;272;39685;-31
2023/04/08 03:20:28;;;;;;;5.70;4.70;;;;;;;;;;107806;279;49225;-31
2023/04/08 03:23:05;;;;;;;6.00;4.50;;;;;;;;;;107819;272;43185;-31
2023/04/08 03:25:39;;;;;;;5.80;4.70;;;;;;;;;;107822;279;38585;-31
2023/04/08 03:28:14;;;;;;;5.80;4.70;;;;;;;;;;107763;271;39677;-31
2023/04/08 03:30:50;;;;;;;5.80;4.70;;;;;;;;;;107793;272;43011;-31
2023/04/08 03:33:27;;;;;;;6.00;4.70;;;;;;;;;;107833;279;42262;-31
2023/04/08 03:36:03;;;;;;;5.90;4.60;;;;;;;;;;107793;272;38798;-31
2023/04/08 03:38:39;;;;;;;6.30;4.60;;;;;;;;;;107771;279;39716;-30
2023/04/08 03:41:15;;;;;;;5.90;4.70;;;;;;;;;;107842;275;42903;-30
2023/04/08 03:43:49;;;;;;;5.60;4.50;;;;;;;;;;107820;279;43194;-30
2023/04/08 03:46:24;;;;;;;5.90;4.80;;;;;;;;;;107815;272;38858;-30
2023/04/08 03:49:00;;;;;;;5.90;5.00;;;;;;;;;;107752;272;40863;-30
2023/04/08 03:51:36;;;;;;;5.80;4.60;;;;;;;;;;107794;279;43038;-30
2023/04/08 03:54:13;;;;;;;6.20;4.90;;;;;;;;;;107824;279;43036;-30
2023/04/08 03:56:49;;;;;;;6.30;5.00;;;;;;;;;;107767;279;38738;-30
2023/04/08 03:59:27;;;;;;;6.40;5.20;;;;;;;;;;107799;275;39620;-30
2023/04/08 04:02:03;;;;;;;6.70;5.30;;;;;;;;;;107827;277;42954;-30
2023/04/08 04:04:40;;;;;;;7.60;5.70;;;;;;;;;;107825;279;43646;-30
2023/04/08 04:07:15;;;;;;;7.40;5.60;;;;;;;;;;107811;272;38618;-30
2023/04/08 04:09:55;;;;;;;8.10;6.00;;;;;;;;;;107773;279;40048;-30
2023/04/08 04:12:31;;;;;;;7.80;6.00;;;;;;;;;;107837;279;44050;-30
2023/04/08 04:15:07;;;;;;;8.00;6.10;;;;;;;;;;107712;279;175823;-30
2023/04/08 04:17:43;;;;;;;8.30;6.20;;;;;;;;;;107848;279;38745;-30
2023/04/08 04:20:17;;;;;;;7.50;6.00;;;;;;;;;;107822;279;39530;-30
2023/04/08 04:22:51;;;;;;;8.40;6.20;;;;;;;;;;107818;275;43972;-30
2023/04/08 04:25:26;;;;;;;9.00;6.70;;;;;;;;;;107800;272;41892;-30
2023/04/08 04:28:01;;;;;;;8.30;6.40;;;;;;;;;;107844;272;38892;-30
2023/04/08 04:30:38;;;;;;;8.50;6.20;;;;;;;;;;107796;279;39963;-30
2023/04/08 04:33:12;;;;;;;8.90;6.40;;;;;;;;;;107839;272;42931;-30
2023/04/08 04:35:49;;;;;;;8.60;6.40;;;;;;;;;;107821;279;42268;-30
2023/04/08 04:38:24;;;;;;;8.60;6.20;;;;;;;;;;107840;271;38811;-30
2023/04/08 04:40:58;;;;;;;8.20;6.20;;;;;;;;;;107832;272;39752;-30
2023/04/08 04:43:35;;;;;;;9.40;6.60;;;;;;;;;;107819;279;42878;-30
2023/04/08 04:46:10;;;;;;;8.00;6.30;;;;;;;;;;107820;276;43315;-30
2023/04/08 04:48:45;;;;;;;8.50;6.10;;;;;;;;;;107854;279;38775;-30
2023/04/08 04:51:20;;;;;;;8.60;6.60;;;;;;;;;;107798;279;39877;-30
2023/04/08 04:53:56;;;;;;;8.50;6.20;;;;;;;;;;107828;279;42856;-30
2023/04/08 04:56:36;;;;;;;8.00;6.20;;;;;;;;;;107816;272;42264;-30
2023/04/08 04:59:10;;;;;;;8.20;6.30;;;;;;;;;;107833;279;38764;-30
2023/04/08 05:01:46;;;;;;;7.60;5.90;;;;;;;;;;107766;279;39848;-30
2023/04/08 05:04:24;;;;;;;8.00;6.40;;;;;;;;;;107821;272;42924;-30
2023/04/08 05:07:00;;;;;;;8.00;6.10;;;;;;;;;;107806;279;42299;-30
2023/04/08 05:09:35;;;;;;;7.80;5.90;;;;;;;;;;107852;271;38791;-30
2023/04/08 05:12:09;;;;;;;7.90;5.70;;;;;;;;;;107796;279;40861;-30
2023/04/08 05:14:42;;;;;;;8.30;6.30;;;;;;;;;;107839;279;42866;-30
2023/04/08 05:17:19;;;;;;;8.20;6.20;;;;;;;;;;107809;279;44339;-30
2023/04/08 05:19:56;;;;;;;7.70;6.00;;;;;;;;;;107832;279;38756;-30
2023/04/08 05:22:30;;;;;;;8.00;6.10;;;;;;;;;;107794;272;41692;-30
2023/04/08 05:25:07;;;;;;;7.50;5.80;;;;;;;;;;107794;279;44021;-30
2023/04/08 05:27:44;;;;;;;8.60;6.50;;;;;;;;;;107830;271;42169;-30
2023/04/08 05:30:18;;;;;;;7.90;6.20;;;;;;;;;;107834;271;38814;-30
2023/04/08 05:32:55;;;;;;;7.60;5.80;;;;;;;;;;107923;279;46725;-30
2023/04/08 05:35:34;;;;;;;7.30;5.60;;;;;;;;;;107796;279;42905;-30
2023/04/08 05:38:10;;;;;;;7.60;5.90;;;;;;;;;;107870;279;43387;-30
2023/04/08 05:40:46;;;;;;;7.90;6.10;;;;;;;;;;107808;279;38792;-30
2023/04/08 05:43:23;;;;;;;8.10;6.30;;;;;;;;;;107824;272;48388;-30
2023/04/08 05:45:59;;;;;;;7.20;5.80;;;;;;;;;;107838;279;44027;-30
2023/04/08 05:48:36;;;;;;;8.00;5.80;;;;;;;;;;107840;272;43458;-30
2023/04/08 05:51:16;;;;;;;8.20;6.10;;;;;;;;;;107765;279;38923;-30
2023/04/08 05:53:52;;;;;;;7.90;5.90;;;;;;;;;;107876;279;40858;-30
2023/04/08 05:56:31;;;;;;;6.90;5.50;;;;;;;;;;107806;271;42905;-30
2023/04/08 05:59:06;;;;;;;7.60;5.80;;;;;;;;;;107874;279;43299;-30
2023/04/08 06:01:42;;;;;;;7.30;5.60;;;;;;;;;;107709;271;175731;-30
2023/04/08 06:04:17;;;;;;;7.50;5.70;;;;;;;;;;107834;279;40961;-30
2023/04/08 06:06:52;;;;;;;7.30;5.60;;;;;;;;;;107804;272;42855;-30
2023/04/08 06:09:27;;;;;;;7.40;5.90;;;;;;;;;;107804;272;43592;-30
2023/04/08 06:12:01;;;;;;;7.50;5.60;;;;;;;;;;107808;271;38822;-30
2023/04/08 06:14:37;;;;;;;7.20;5.60;;;;;;;;;;107811;279;39708;-30
2023/04/08 06:17:13;;;;;;;7.70;5.60;;;;;;;;;;107769;274;44047;-30
2023/04/08 06:19:49;;;;;;;7.30;5.70;;;;;;;;;;107804;279;42633;-30
2023/04/08 06:22:26;;;;;;;6.90;5.80;;;;;;;;;;107795;272;38797;-30
2023/04/08 06:25:01;;;;;;;7.20;5.70;;;;;;;;;;107860;279;40958;-30
2023/04/08 06:27:36;;;;;;;7.50;5.60;;;;;;;;;;107778;279;43062;-30
2023/04/08 06:30:12;;;;;;;7.10;5.50;;;;;;;;;;107836;279;42237;-30
2023/04/08 06:32:48;;;;;;;7.00;5.30;;;;;;;;;;107803;272;38691;-30
2023/04/08 06:35:25;;;;;;;6.80;5.50;;;;;;;;;;107834;272;39672;-30
2023/04/08 06:38:01;;;;;;;8.30;5.60;;;;;;;;;;107808;279;43526;-30
2023/04/08 06:40:37;;;;;;;7.30;5.50;;;;;;;;;;107785;279;42151;-30
2023/04/08 06:43:13;;;;;;;6.90;5.30;;;;;;;;;;107797;279;39809;-30
2023/04/08 06:45:50;;;;;;;7.20;5.80;;;;;;;;;;107787;272;39871;-30
2023/04/08 06:48:29;;;;;;;6.40;5.10;;;;;;;;;;107833;272;43343;-30
2023/04/08 06:51:06;;;;;;;6.90;5.60;;;;;;;;;;107773;279;42176;-30
2023/04/08 06:53:43;;;;;;;7.20;5.70;;;;;;;;;;107808;279;38807;-30
2023/04/08 06:56:21;;;;;;;6.60;5.20;;;;;;;;;;107883;272;40920;-30
2023/04/08 06:58:56;;;;;;;6.70;5.30;;;;;;;;;;107815;279;44113;-30
2023/04/08 07:01:33;;;;;;;6.80;5.50;;;;;;;;;;107809;279;42141;-30
2023/04/08 07:04:11;;;;;;;7.10;5.00;;;;;;;;;;107680;279;175705;-30
2023/04/08 07:06:49;;;;;;;6.80;5.30;;;;;;;;;;107810;279;38446;-30
2023/04/08 07:09:24;;;;;;;6.10;4.90;;;;;;;;;;107762;272;42883;-30
2023/04/08 07:11:59;;;;;;;7.10;5.70;;;;;;;;;;107824;279;44543;-30
2023/04/08 07:14:37;;;;;;;6.60;5.30;;;;;;;;;;107763;272;38770;-30
2023/04/08 07:17:12;;;;;;;6.90;5.40;;;;;;;;;;107845;272;39673;-30
2023/04/08 07:19:48;;;;;;;6.90;5.20;;;;;;;;;;107818;276;43925;-30
2023/04/08 07:22:24;;;;;;;6.40;5.00;;;;;;;;;;107849;272;42114;-30
2023/04/08 07:25:01;;;;;;;6.80;5.10;;;;;;;;;;107770;272;38821;-30
2023/04/08 07:27:38;;;;;;;6.50;5.10;;;;;;;;;;107810;279;39756;-30
2023/04/08 07:30:15;;;;;;;6.70;5.10;;;;;;;;;;107799;279;42853;-30
2023/04/08 07:32:51;;;;;;;6.70;5.00;;;;;;;;;;107781;274;42094;-30
2023/04/08 07:35:30;;;;;;;6.40;4.80;;;;;;;;;;107798;277;45861;-30
2023/04/08 07:38:10;;;;;;;6.40;5.00;;;;;;;;;;107823;272;40302;-30
2023/04/08 07:40:46;;;;;;;6.40;5.10;;;;;;;;;;107825;272;44184;-30
2023/04/08 07:43:21;;;;;;;7.50;5.40;;;;;;;;;;107772;279;42281;-30
2023/04/08 07:46:02;;;;;;;6.90;5.10;;;;;;;;;;107838;272;46074;-30
2023/04/08 07:48:36;;;;;;;7.00;5.20;;;;;;;;;;107820;272;39872;-30
2023/04/08 07:51:13;;;;;;;6.50;5.00;;;;;;;;;;107826;279;44092;-30
2023/04/08 07:53:52;;;;;;;6.30;5.00;;;;;;;;;;107792;279;42302;-30
2023/04/08 07:56:26;;;;;;;6.30;4.80;;;;;;;;;;107810;276;38819;-30
2023/04/08 07:59:00;;;;;;;6.30;4.80;;;;;;;;;;107828;272;39569;-30
2023/04/08 08:01:35;;;;;;;6.10;4.90;;;;;;;;;;107800;279;42859;-30
2023/04/08 08:04:11;;;;;;;6.10;4.80;;;;;;;;;;107761;279;42308;-30
2023/04/08 08:06:48;;;;;;;6.20;4.80;;;;;;;;;;107817;279;39064;-30
2023/04/08 08:09:25;;;;;;;6.10;4.60;;;;;;;;;;107783;279;39699;-30
2023/04/08 08:11:58;;;;;;;6.20;4.60;;;;;;;;;;107817;272;42950;-30
2023/04/08 08:14:33;;;;;;;6.00;4.80;;;;;;;;;;107761;279;42141;-30
2023/04/08 08:17:09;;;;;;;6.10;5.00;;;;;;;;;;107828;279;38884;-30
2023/04/08 08:19:43;;;;;;;6.70;4.90;;;;;;;;;;107790;272;40171;-30
2023/04/08 08:22:18;;;;;;;6.20;4.80;;;;;;;;;;107808;272;42872;-30
2023/04/08 08:24:57;;;;;;;6.40;4.90;;;;;;;;;;107772;279;42284;-30
2023/04/08 08:27:34;;;;;;;6.30;4.70;;;;;;;;;;107804;279;38791;-30
2023/04/08 08:30:10;;;;;;;5.70;4.50;;;;;;;;;;107791;279;40261;-30
2023/04/08 08:32:46;;;;;;;6.10;4.60;;;;;;;;;;107796;272;42944;-30
2023/04/08 08:35:21;;;;;;;6.20;4.90;;;;;;;;;;107769;279;42141;-30
2023/04/08 08:37:55;;;;;;;6.40;4.90;;;;;;;;;;107781;271;38865;-30
2023/04/08 08:40:31;;;;;;;6.20;4.60;;;;;;;;;;107800;272;39651;-30
2023/04/08 08:43:08;;;;;;;6.00;4.70;;;;;;;;;;107816;279;42855;-30
2023/04/08 08:45:50;;;;;;;5.90;4.60;;;;;;;;;;107779;279;42286;-30
2023/04/08 08:48:23;;;;;;;5.90;4.60;;;;;;;;;;107791;279;38760;-30
2023/04/08 08:51:00;;;;;;;6.30;4.60;;;;;;;;;;107770;272;39707;-30
2023/04/08 08:53:36;;;;;;;5.40;4.40;;;;;;;;;;107801;280;42885;-30
2023/04/08 08:56:13;;;;;;;5.70;4.50;;;;;;;;;;107779;272;42138;-30
2023/04/08 08:58:51;;;;;;;5.90;4.40;;;;;;;;;;107810;280;38888;-30
2023/04/08 09:01:37;;;;;;;6.00;4.40;;;;;;;;;;107779;280;39709;-30
2023/04/08 09:04:15;;;;;;;5.70;4.20;;;;;;;;;;107822;272;42997;-30
2023/04/08 09:07:07;;;;;;;5.90;4.60;;;;;;;;;;107783;272;42254;-30
2023/04/08 09:09:52;;;;;;;;;;;;;;;;;;107819;280;40170;-30
2023/04/08 09:12:28;;;;;;;5.90;4.20;;;;;;;;;;107786;272;39698;-30
2023/04/08 09:15:11;;;;;;;5.90;4.40;;;;;;;;;;107790;280;42935;-30
2023/04/08 09:17:46;;;;;;;5.60;4.10;;;;;;;;;;107922;280;47781;-30
2023/04/08 09:20:20;;;;;;;5.40;4.30;;;;;;;;;;107798;272;38525;-30
2023/04/08 09:23:01;;;;;;;5.80;4.40;;;;;;;;;;107823;280;39721;-30
2023/04/08 09:25:37;;;;;;;5.30;4.10;;;;;;;;;;107818;272;43629;-30
2023/04/08 09:28:23;;;;;;;5.50;4.20;;;;;;;;;;107824;280;49330;-30
2023/04/08 09:30:57;;;;;;;6.20;4.40;;;;;;;;;;107784;280;39051;-30
2023/04/08 09:33:38;;;;;;;5.70;4.40;;;;;;;;;;107805;280;39503;-31
2023/04/08 09:36:14;;;;;;;5.40;4.00;;;;;;;;;;107658;272;196054;-31
2023/04/08 09:38:49;;;;;;;5.60;4.20;;;;;;;;;;107468;272;449176;-31
2023/04/08 09:41:28;;;;;;;5.60;4.10;;;;;;;;;;107793;273;38764;-31
2023/04/08 09:44:05;;;;;;;5.80;4.30;;;;;;;;;;107788;280;39824;-31
2023/04/08 09:46:52;;;;;;;5.60;4.20;;;;;;;;;;107779;280;42894;-30
2023/04/08 09:49:33;;;;;;;5.30;4.10;;;;;;;;;;107774;280;41871;-30
2023/04/08 09:52:14;;;;;;;5.10;3.80;;;;;;;;;;107800;272;38537;-30
2023/04/08 09:54:58;;;;;;;5.60;3.90;;;;;;;;;;107766;272;39447;-30
2023/04/08 09:57:46;;;;;;;5.10;3.70;;;;;;;;;;107753;280;42698;-30
2023/04/08 10:00:25;;;;;;;5.50;4.20;;;;;;;;;;107785;280;41895;-30
2023/04/08 10:03:10;;;;;;;5.30;4.00;;;;;;;;;;107806;272;38711;-30
2023/04/08 10:05:46;;;;;;;5.10;3.90;;;;;;;;;;107678;280;175665;-30
2023/04/08 10:08:20;;;;;;;5.30;3.90;;;;;;;;;;107781;280;42645;-30
2023/04/08 10:10:56;;;;;;;5.20;3.90;;;;;;;;;;107805;280;42148;-30
2023/04/08 10:13:32;;;;;;;5.20;4.10;;;;;;;;;;107806;280;38862;-30
2023/04/08 10:16:31;;;;;;;5.50;3.80;;;;;;;;;;107804;280;39711;-30
2023/04/08 10:19:40;;;;;;;5.40;3.90;;;;;;;;;;107742;280;48666;-31
2023/04/08 10:22:49;;;;;;;5.40;4.10;;;;;;;;;;107842;272;42188;-31
2023/04/08 10:25:35;;;;;;;5.80;4.00;;;;;;;;;;107798;280;39761;-30
2023/04/08 10:28:28;;;;;;;5.40;3.70;;;;;;;;;;107794;280;39884;-30
2023/04/08 10:31:05;;;;;;;5.00;3.60;;;;;;;;;;107697;280;175621;-30
2023/04/08 10:33:43;;;;;;;5.60;4.10;;;;;;;;;;107814;280;41918;-30
2023/04/08 10:36:17;;;;;;;5.60;4.20;;;;;;;;;;107810;280;38902;-30
2023/04/08 10:38:52;;;;;;;5.30;4.00;;;;;;;;;;107777;280;39495;-30
2023/04/08 10:41:28;;;;;;;5.40;4.10;;;;;;;;;;107828;280;42845;-30
2023/04/08 10:44:05;;;;;;;5.50;4.20;;;;;;;;;;107812;280;42127;-30
2023/04/08 10:46:46;;;;;;;5.30;4.00;;;;;;;;;;107778;279;38586;-30
2023/04/08 10:49:23;;;;;;;5.40;3.90;;;;;;;;;;107739;279;39413;-30
2023/04/08 10:51:59;;;;;;;5.30;4.00;;;;;;;;;;107814;272;42725;-30
2023/04/08 10:54:34;;;;;;;5.30;3.90;;;;;;;;;;107783;279;42247;-30
2023/04/08 10:57:11;;;;;;;5.30;4.10;;;;;;;;;;107858;279;38522;-30
2023/04/08 10:59:45;;;;;;;5.20;3.80;;;;;;;;;;107807;279;40738;-30
2023/04/08 11:02:22;;;;;;;5.30;4.10;;;;;;;;;;107802;272;42657;-30
2023/04/08 11:05:04;;;;;;;5.30;3.90;;;;;;;;;;107806;279;41885;-30
2023/04/08 11:07:43;;;;;;;5.20;4.00;;;;;;;;;;107822;276;38772;-30
2023/04/08 11:10:16;;;;;;;5.30;4.10;;;;;;;;;;107921;279;46444;-30
2023/04/08 11:12:50;;;;;;;5.20;4.00;;;;;;;;;;107797;272;44077;-30
2023/04/08 11:15:25;;;;;;;5.20;3.70;;;;;;;;;;107785;279;43182;-30
2023/04/08 11:18:01;;;;;;;5.50;4.10;;;;;;;;;;107814;279;39474;-30
2023/04/08 11:20:41;;;;;;;5.20;3.90;;;;;;;;;;107799;272;45130;-30
2023/04/08 11:23:18;;;;;;;;;;;;;;;;;;107879;279;42652;-30
2023/04/08 11:26:06;;;;;;;5.20;3.80;;;;;;;;;;107695;279;175630;-30
2023/04/08 11:28:47;;;;;;;5.30;3.90;;;;;;;;;;107819;272;38583;-30
2023/04/08 11:31:25;;;;;;;5.40;4.00;;;;;;;;;;107849;272;39492;-30
2023/04/08 11:34:02;;;;;;;5.40;4.10;;;;;;;;;;107803;279;43056;-30
2023/04/08 11:36:40;;;;;;;5.20;4.10;;;;;;;;;;107800;272;42271;-30
2023/04/08 11:39:14;;;;;;;5.70;4.00;;;;;;;;;;107765;272;38788;-30
2023/04/08 11:41:50;;;;;;;5.30;3.80;;;;;;;;;;107832;279;39449;-30
2023/04/08 11:44:33;;;;;;;5.30;3.80;;;;;;;;;;107815;272;42832;-30
2023/04/08 11:47:07;;;;;;;5.00;3.70;;;;;;;;;;107820;279;41910;-30
2023/04/08 11:49:50;;;;;;;5.40;4.10;;;;;;;;;;107773;279;38608;-30
2023/04/08 11:52:42;;;;;;;5.40;3.60;;;;;;;;;;107828;272;39431;-30
2023/04/08 11:55:24;;;;;;;5.20;3.70;;;;;;;;;;107819;279;42691;-30
2023/04/08 11:58:02;;;;;;;5.40;4.00;;;;;;;;;;107813;279;42080;-30
2023/04/08 12:00:38;;;;;;;5.10;3.60;;;;;;;;;;107788;279;38804;-30
2023/04/08 12:03:13;;;;;;;5.20;3.80;;;;;;;;;;107810;279;39637;-30
2023/04/08 12:05:48;;;;;;;5.00;3.80;;;;;;;;;;107817;272;42850;-30
2023/04/08 12:08:22;;;;;;;5.20;4.00;;;;;;;;;;107815;279;42054;-30
2023/04/08 12:10:58;;;;;;;5.60;3.70;;;;;;;;;;107768;271;38592;-30
2023/04/08 12:13:51;;;;;;;5.00;3.70;;;;;;;;;;107809;279;39682;-30
2023/04/08 12:16:25;;;;;;;5.50;4.00;;;;;;;;;;107850;272;42639;-30
2023/04/08 12:19:03;;;;;;;5.00;3.50;;;;;;;;;;107821;279;43220;-30
2023/04/08 12:21:38;;;;;;;5.50;3.70;;;;;;;;;;107780;279;38815;-30
2023/04/08 12:24:11;;;;;;;5.50;3.70;;;;;;;;;;107798;279;39841;-30
2023/04/08 12:26:45;;;;;;;5.50;3.90;;;;;;;;;;107817;279;42624;-30
2023/04/08 12:29:21;;;;;;;5.50;3.70;;;;;;;;;;107816;272;41854;-30
2023/04/08 12:31:57;;;;;;;5.20;3.70;;;;;;;;;;107661;279;175620;-30
2023/04/08 12:34:34;;;;;;;5.20;3.80;;;;;;;;;;107838;279;39671;-30
2023/04/08 12:37:10;;;;;;;5.20;3.80;;;;;;;;;;107810;272;42934;-30
2023/04/08 12:39:44;;;;;;;5.30;3.70;;;;;;;;;;107786;279;42138;-30
2023/04/08 12:42:19;;;;;;;5.40;4.00;;;;;;;;;;107934;277;44486;-30
2023/04/08 12:44:55;;;;;;;4.80;3.60;;;;;;;;;;107812;279;39440;-30
2023/04/08 12:47:32;;;;;;;5.00;3.70;;;;;;;;;;107123;279;895241;-30
2023/04/08 12:50:08;;;;;;;4.90;3.60;;;;;;;;;;107800;279;42070;-30
2023/04/08 12:52:43;;;;;;;5.10;3.80;;;;;;;;;;107853;272;38763;-30
2023/04/08 12:55:18;;;;;;;5.30;3.70;;;;;;;;;;107858;272;40072;-30
2023/04/08 12:57:55;;;;;;;5.00;3.50;;;;;;;;;;107827;272;42673;-30
2023/04/08 13:00:31;;;;;;;5.00;3.70;;;;;;;;;;107788;279;41865;-30
2023/04/08 13:03:06;;;;;;;4.80;3.40;;;;;;;;;;107829;279;45114;-30
2023/04/08 13:05:43;;;;;;;5.00;3.60;;;;;;;;;;107818;279;39996;-30
2023/04/08 13:08:22;;;;;;;4.80;3.50;;;;;;;;;;107849;279;42877;-30
2023/04/08 13:10:58;;;;;;;5.00;3.50;;;;;;;;;;107731;281;41843;-30
2023/04/08 13:13:32;;;;;;;5.10;3.60;;;;;;;;;;107806;272;39080;-30
2023/04/08 13:16:08;;;;;;;5.30;3.90;;;;;;;;;;107835;272;40082;-30
2023/04/08 13:18:43;;;;;;;5.00;3.70;;;;;;;;;;107818;279;43369;-30
2023/04/08 13:21:19;;;;;;;4.50;3.40;;;;;;;;;;107767;279;42125;-30
2023/04/08 13:23:55;;;;;;;5.50;4.00;;;;;;;;;;107800;279;38605;-30
2023/04/08 13:26:31;;;;;;;5.30;3.80;;;;;;;;;;107784;279;39593;-30
2023/04/08 13:29:10;;;;;;;5.30;3.90;;;;;;;;;;107668;279;175621;-31
2023/04/08 13:31:46;;;;;;;4.80;3.50;;;;;;;;;;107792;279;42223;-31
2023/04/08 13:34:22;;;;;;;4.90;3.50;;;;;;;;;;107829;277;38802;-31
2023/04/08 13:36:57;;;;;;;5.00;3.50;;;;;;;;;;107824;279;40832;-31
2023/04/08 13:39:30;;;;;;;5.10;3.70;;;;;;;;;;107820;272;43139;-31
2023/04/08 13:42:05;;;;;;;4.70;3.40;;;;;;;;;;107742;279;42145;-30
2023/04/08 13:44:42;;;;;;;4.90;3.60;;;;;;;;;;107808;279;39057;-31
2023/04/08 13:47:20;;;;;;;4.90;3.40;;;;;;;;;;107787;279;40864;-31
2023/04/08 13:49:57;;;;;;;4.80;3.60;;;;;;;;;;107794;279;42820;-31
2023/04/08 13:52:33;;;;;;;5.20;3.70;;;;;;;;;;107749;278;42142;-31
2023/04/08 13:55:08;;;;;;;5.20;3.80;;;;;;;;;;107824;272;40116;-31
2023/04/08 13:57:45;;;;;;;4.60;3.40;;;;;;;;;;107817;272;39730;-31
2023/04/08 14:00:24;;;;;;;4.80;3.50;;;;;;;;;;107809;279;42973;-31
2023/04/08 14:03:02;;;;;;;4.80;3.60;;;;;;;;;;107746;279;42004;-31
2023/04/08 14:05:38;;;;;;;5.00;3.70;;;;;;;;;;107806;279;38932;-31
2023/04/08 14:08:17;;;;;;;4.70;3.40;;;;;;;;;;107807;272;39763;-31
2023/04/08 14:10:55;;;;;;;4.60;3.40;;;;;;;;;;107787;279;42987;-30
2023/04/08 14:13:31;;;;;;;4.90;3.50;;;;;;;;;;107128;279;893772;-31
2023/04/08 14:16:07;;;;;;;5.00;3.70;;;;;;;;;;107783;272;38799;-30
2023/04/08 14:18:43;;;;;;;4.90;3.80;;;;;;;;;;107848;279;39682;-30
2023/04/08 14:21:20;;;;;;;4.90;3.50;;;;;;;;;;107865;272;44128;-31
2023/04/08 14:23:57;;;;;;;5.10;3.50;;;;;;;;;;107779;279;42135;-30
2023/04/08 14:26:35;;;;;;;5.00;3.90;;;;;;;;;;107850;279;38791;-32
2023/04/08 14:29:09;;;;;;;4.80;3.60;;;;;;;;;;107835;279;40772;-31
2023/04/08 14:31:47;;;;;;;5.10;3.60;;;;;;;;;;107814;272;43010;-31
2023/04/08 14:34:24;;;;;;;4.80;3.40;;;;;;;;;;107769;272;42114;-31
2023/04/08 14:37:00;;;;;;;4.90;3.40;;;;;;;;;;107809;272;38718;-31
2023/04/08 14:39:35;;;;;;;4.80;3.60;;;;;;;;;;107812;276;40999;-30
2023/04/08 14:42:15;;;;;;;4.70;3.40;;;;;;;;;;107803;272;42925;-31
2023/04/08 14:44:51;;;;;;;5.10;3.60;;;;;;;;;;107792;279;43476;-31
2023/04/08 14:47:27;;;;;;;5.10;3.60;;;;;;;;;;107806;276;38857;-31
2023/04/08 14:50:04;;;;;;;4.90;3.30;;;;;;;;;;107807;279;39510;-31
2023/04/08 14:52:40;;;;;;;4.90;3.40;;;;;;;;;;107813;279;42876;-31
2023/04/08 14:55:16;;;;;;;5.30;3.70;;;;;;;;;;107765;279;48106;-31
2023/04/08 14:57:52;;;;;;;4.80;3.60;;;;;;;;;;107834;281;38943;-31
2023/04/08 15:00:28;;;;;;;4.80;3.40;;;;;;;;;;107803;279;39634;-31
2023/04/08 15:03:02;;;;;;;4.90;3.50;;;;;;;;;;107783;279;42938;-31
2023/04/08 15:05:38;;;;;;;4.70;3.50;;;;;;;;;;107825;279;42389;-30
2023/04/08 15:08:15;;;;;;;4.80;3.40;;;;;;;;;;107823;279;38704;-31
2023/04/08 15:10:52;;;;;;;4.40;3.20;;;;;;;;;;107792;279;39680;-31
2023/04/08 15:13:26;;;;;;;5.00;3.60;;;;;;;;;;107743;279;43242;-31
2023/04/08 15:16:01;;;;;;;4.60;3.40;;;;;;;;;;107835;279;42145;-31
2023/04/08 15:18:36;;;;;;;5.00;3.70;;;;;;;;;;107827;272;39253;-31
2023/04/08 15:21:12;;;;;;;4.80;3.50;;;;;;;;;;107813;279;39893;-31
2023/04/08 15:23:46;;;;;;;4.90;3.50;;;;;;;;;;107781;272;42993;-31
2023/04/08 15:26:24;;;;;;;4.60;3.40;;;;;;;;;;107812;279;42356;-31
2023/04/08 15:29:00;;;;;;;4.80;3.40;;;;;;;;;;107801;279;38805;-31
2023/04/08 15:31:37;;;;;;;4.80;3.50;;;;;;;;;;107802;279;39727;-31
2023/04/08 15:34:13;;;;;;;5.10;3.60;;;;;;;;;;107769;272;42897;-31
2023/04/08 15:36:48;;;;;;;4.90;3.70;;;;;;;;;;107789;272;44127;-31
2023/04/08 15:39:24;;;;;;;4.90;3.50;;;;;;;;;;107810;279;38750;-31
2023/04/08 15:42:00;;;;;;;4.80;3.40;;;;;;;;;;107825;272;40308;-31